Time;durP1;ratioP1;P1;durP2;ratioP2;P2;SDS_P1;SDS_P2;PMS_P1;PMS_P2;Temp;Humidity;BMP_temperature;BMP_pressure;BME280_temperature;BME280_humidity;BME280_pressure;Samples;Min_cycle;Max_cycle;Signal;HPM_P1;HPM_P2
2022/09/25 00:00:23;;;;;;;12.27;3.78;;;;;;;12.73;51.22;100061.09;3144417;28;20059;-60
2022/09/25 00:01:55;;;;;;;9.52;4.30;;;;;;;12.69;50.78;100043.88;3140408;28;20506;-61
2022/09/25 00:03:28;;;;;;;7.28;3.45;;;;;;;12.77;50.94;100054.78;3139716;28;20056;-61
2022/09/25 00:05:00;;;;;;;8.48;3.65;;;;;;;12.78;50.99;100053.00;3138841;28;20064;-60
2022/09/25 00:06:32;;;;;;;7.35;4.00;;;;;;;12.79;51.17;100052.94;3144751;28;20130;-61
2022/09/25 00:08:05;;;;;;;6.55;3.72;;;;;;;12.81;50.79;100045.00;3144311;28;20144;-62
2022/09/25 00:09:36;;;;;;;8.02;3.75;;;;;;;12.79;50.79;100039.88;3144941;28;20052;-61
2022/09/25 00:11:09;;;;;;;8.05;3.58;;;;;;;12.83;51.08;100044.00;3144589;28;20500;-61
2022/09/25 00:12:41;;;;;;;12.25;3.97;;;;;;;12.83;50.81;100046.63;3144713;28;20133;-61
2022/09/25 00:14:13;;;;;;;8.15;3.78;;;;;;;12.85;50.94;100054.41;3144514;28;20077;-61
2022/09/25 00:15:49;;;;;;;8.77;4.10;;;;;;;12.86;50.88;100051.69;3144832;28;20059;-61
2022/09/25 00:17:21;;;;;;;8.13;3.60;;;;;;;12.86;51.18;100058.69;3144395;28;20059;-61
2022/09/25 00:20:42;;;;;;;9.32;3.72;;;;;;;12.78;51.23;100053.00;3144666;28;20048;-61
2022/09/25 00:22:14;;;;;;;8.27;4.07;;;;;;;12.84;51.36;100055.34;3144867;28;20056;-61
2022/09/25 00:23:46;;;;;;;12.20;4.20;;;;;;;12.81;51.29;100052.84;3144478;28;20099;-62
2022/09/25 00:25:19;;;;;;;10.57;4.50;;;;;;;12.78;51.31;100051.25;3144507;28;20056;-61
2022/09/25 00:26:51;;;;;;;6.07;3.77;;;;;;;12.77;51.29;100044.31;3144498;28;20930;-61
2022/09/25 00:28:21;;;;;;;6.38;4.15;;;;;;;12.78;51.29;100048.63;3144744;28;20087;-62
2022/09/25 00:29:53;;;;;;;7.07;4.20;;;;;;;12.79;51.28;100049.47;3144456;28;20059;-61
2022/09/25 00:31:25;;;;;;;8.75;4.28;;;;;;;12.79;51.09;100052.94;3144388;28;20106;-61
2022/09/25 00:32:57;;;;;;;8.85;3.50;;;;;;;12.79;51.16;100049.47;3143960;28;20053;-61
2022/09/25 00:34:29;;;;;;;9.32;4.03;;;;;;;12.79;51.17;100041.63;3144461;28;20102;-61
2022/09/25 00:36:04;;;;;;;8.43;3.95;;;;;;;12.73;51.28;100038.41;3144370;28;20044;-61
2022/09/25 00:37:36;;;;;;;6.20;3.85;;;;;;;12.78;51.13;100046.03;3144340;28;20499;-61
2022/09/25 00:39:10;;;;;;;10.70;4.18;;;;;;;12.75;51.21;100040.97;3144249;28;20057;-61
2022/09/25 00:40:42;;;;;;;7.32;3.63;;;;;;;12.74;50.96;100037.47;3144611;28;20052;-62
2022/09/25 00:42:13;;;;;;;5.78;3.45;;;;;;;12.77;50.98;100044.31;3144336;28;20052;-62
2022/09/25 00:43:49;;;;;;;9.82;3.63;;;;;;;12.76;51.05;100045.25;3144235;28;20507;-61
2022/09/25 00:45:23;;;;;;;13.02;4.63;;;;;;;12.74;51.27;100036.63;3144381;28;20113;-60
2022/09/25 00:46:54;;;;;;;8.90;3.97;;;;;;;12.72;51.28;100036.72;3144417;28;20109;-61
2022/09/25 00:48:26;;;;;;;6.55;4.13;;;;;;;12.71;51.07;100039.41;3144379;28;20090;-61
2022/09/25 00:50:00;;;;;;;8.52;4.15;;;;;;;12.67;51.30;100037.88;3143976;28;20048;-61
2022/09/25 00:51:37;;;;;;;9.50;4.10;;;;;;;12.67;51.14;100043.09;3144461;28;20045;-61
2022/09/25 00:53:12;;;;;;;7.45;4.30;;;;;;;12.63;51.20;100036.31;3144269;28;20080;-62
2022/09/25 00:54:48;;;;;;;7.97;4.18;;;;;;;12.63;51.08;100033.69;3144458;28;20090;-61
2022/09/25 00:56:20;;;;;;;8.00;4.00;;;;;;;12.62;51.15;100038.09;3144249;28;20061;-61
2022/09/25 00:57:56;;;;;;;8.63;4.05;;;;;;;12.62;50.96;100038.09;3144068;28;20048;-62
2022/09/25 00:59:31;;;;;;;6.80;4.70;;;;;;;12.61;51.27;100035.56;3144353;28;20551;-62
2022/09/25 01:01:04;;;;;;;9.38;4.18;;;;;;;12.61;50.93;100032.97;3144034;28;20431;-62
2022/09/25 01:02:39;;;;;;;8.93;4.30;;;;;;;12.59;51.17;100030.41;3134896;28;20048;-62
2022/09/25 01:04:13;;;;;;;6.43;3.90;;;;;;;12.58;51.12;100030.50;3144174;28;20118;-62
2022/09/25 01:05:46;;;;;;;7.28;4.25;;;;;;;12.51;51.38;100020.34;3144152;28;20056;-62
2022/09/25 01:07:18;;;;;;;15.90;4.53;;;;;;;12.48;51.42;100025.72;3144151;28;20066;-61
2022/09/25 01:08:50;;;;;;;6.78;4.13;;;;;;;12.44;51.79;100034.63;3144201;28;20048;-61
2022/09/25 01:10:23;;;;;;;7.25;4.45;;;;;;;12.43;51.46;100030.34;3144069;28;20575;-61
2022/09/25 01:11:54;;;;;;;5.90;3.92;;;;;;;12.39;51.67;100028.78;3144283;28;20086;-61
2022/09/25 01:13:28;;;;;;;6.72;4.45;;;;;;;12.35;51.85;100029.84;3143978;28;20044;-62
2022/09/25 01:14:59;;;;;;;5.97;3.65;;;;;;;12.28;52.06;100028.47;3143974;28;20243;-62
2022/09/25 01:16:38;;;;;;;7.15;4.05;;;;;;;12.26;51.91;100030.31;3144389;28;20506;-61
2022/09/25 01:18:21;;;;;;;6.65;4.07;;;;;;;12.27;52.21;100030.25;3134121;28;20091;-62
2022/09/25 01:20:04;;;;;;;7.05;4.15;;;;;;;12.19;52.03;100015.88;3144149;28;20772;-62
2022/09/25 01:21:39;;;;;;;6.53;4.18;;;;;;;12.14;52.33;100020.47;3143897;28;20106;-61
2022/09/25 01:23:19;;;;;;;8.50;3.58;;;;;;;12.19;52.08;100023.69;3144059;28;20049;-61
2022/09/25 01:25:08;;;;;;;7.20;4.50;;;;;;;12.28;52.25;100036.31;3143979;28;20099;-61
2022/09/25 01:27:18;;;;;;;9.15;4.38;;;;;;;12.26;51.88;100035.53;3134319;28;20049;-62
2022/09/25 01:29:07;;;;;;;6.40;3.85;;;;;;;12.22;51.88;100019.16;3144709;28;20047;-61
2022/09/25 01:30:44;;;;;;;9.85;3.67;;;;;;;12.28;52.01;100025.88;3144441;28;20048;-63
2022/09/25 01:32:22;;;;;;;7.38;4.40;;;;;;;12.28;52.19;100018.88;3143786;28;20426;-59
2022/09/25 01:34:00;;;;;;;10.20;4.57;;;;;;;12.29;52.11;100024.94;3143953;28;20056;-61
2022/09/25 01:35:39;;;;;;;7.72;4.03;;;;;;;12.29;51.81;100030.16;3144148;28;20090;-61
2022/09/25 01:37:19;;;;;;;8.13;4.75;;;;;;;12.28;52.17;100028.47;3144170;28;20048;-61
2022/09/25 01:38:55;;;;;;;7.95;4.53;;;;;;;12.27;52.17;100027.63;3143930;28;20045;-60
2022/09/25 01:40:32;;;;;;;8.88;4.15;;;;;;;12.23;52.22;100023.47;3144120;28;20572;-61
2022/09/25 01:42:08;;;;;;;9.57;4.38;;;;;;;12.24;52.00;100021.69;3143921;28;20086;-61
2022/09/25 01:43:44;;;;;;;11.38;4.10;;;;;;;12.18;52.00;100014.16;3145633;28;20045;-61
2022/09/25 01:45:24;;;;;;;10.13;4.07;;;;;;;12.17;52.06;100018.53;3146353;28;20059;-61
2022/09/25 01:47:01;;;;;;;5.15;3.25;;;;;;;12.20;52.26;100028.81;3146049;28;20056;-61
2022/09/25 01:48:35;;;;;;;6.22;4.03;;;;;;;12.18;52.43;100024.59;3134749;28;20056;-61
2022/09/25 01:50:12;;;;;;;8.63;4.32;;;;;;;12.16;52.43;100024.69;3138581;28;20053;-61
2022/09/25 01:51:49;;;;;;;7.35;3.88;;;;;;;12.11;52.29;100033.66;3142510;28;20052;-60
2022/09/25 01:53:26;;;;;;;9.00;4.22;;;;;;;12.06;52.43;100029.47;3146100;28;20049;-59
2022/09/25 01:55:05;;;;;;;7.30;3.97;;;;;;;12.04;52.57;100035.72;3145754;28;20091;-61
2022/09/25 01:56:41;;;;;;;11.05;5.47;;;;;;;12.01;52.52;100033.25;3146708;28;20086;-61
2022/09/25 01:58:18;;;;;;;5.90;3.63;;;;;;;11.99;52.51;100030.69;3146418;28;20504;-60
2022/09/25 01:59:56;;;;;;;8.55;3.70;;;;;;;11.96;52.84;100030.00;3146130;28;20071;-60
2022/09/25 02:01:32;;;;;;;6.82;3.72;;;;;;;11.96;52.46;100038.69;3146076;28;20539;-60
2022/09/25 02:03:11;;;;;;;7.25;4.03;;;;;;;11.82;52.63;100014.97;3146016;28;20154;-60
2022/09/25 02:04:48;;;;;;;5.55;3.63;;;;;;;11.87;52.45;100038.28;3146287;28;20131;-59
2022/09/25 02:06:19;;;;;;;6.28;3.55;;;;;;;11.85;52.49;100038.31;3146244;28;20052;-59
2022/09/25 02:07:55;;;;;;;6.60;4.13;;;;;;;11.86;52.81;100036.56;3145700;28;20129;-59
2022/09/25 02:09:31;;;;;;;8.40;4.07;;;;;;;11.87;52.69;100038.28;3145768;28;20055;-59
2022/09/25 02:11:05;;;;;;;6.22;3.40;;;;;;;11.87;52.83;100036.50;3145904;28;20053;-59
2022/09/25 02:12:42;;;;;;;9.40;3.78;;;;;;;11.83;52.85;100029.69;3146247;28;20052;-60
2022/09/25 02:14:18;;;;;;;7.90;4.00;;;;;;;11.87;52.76;100033.91;3145979;28;20437;-59
2022/09/25 02:15:55;;;;;;;8.82;4.95;;;;;;;11.87;52.98;100033.06;3145967;28;20102;-61
2022/09/25 02:21:19;;;;;;;7.82;3.42;;;;;;;11.86;52.90;100047.00;3146021;28;20060;-60
2022/09/25 02:22:54;;;;;;;5.95;3.80;;;;;;;11.81;52.90;100041.97;3146316;28;20045;-60
2022/09/25 02:24:33;;;;;;;7.45;3.42;;;;;;;11.86;52.94;100053.09;3145875;28;20060;-62
2022/09/25 02:26:08;;;;;;;7.22;3.75;;;;;;;11.81;53.10;100040.22;3146092;28;20113;-62
2022/09/25 02:27:40;;;;;;;9.05;3.83;;;;;;;11.79;53.11;100043.81;3146053;28;20044;-61
2022/09/25 02:29:12;;;;;;;7.20;4.00;;;;;;;11.84;53.00;100049.66;3145970;28;20044;-60
2022/09/25 02:30:46;;;;;;;6.43;3.53;;;;;;;11.79;53.12;100046.41;3146047;28;20136;-59
2022/09/25 02:32:21;;;;;;;6.95;4.00;;;;;;;11.72;53.43;100043.25;3145676;28;20056;-59
2022/09/25 02:33:55;;;;;;;7.63;3.95;;;;;;;11.70;53.42;100050.28;3145774;28;20041;-59
2022/09/25 02:35:27;;;;;;;9.65;4.22;;;;;;;11.66;53.52;100056.56;3145903;28;20048;-58
2022/09/25 02:36:59;;;;;;;12.60;3.72;;;;;;;11.62;53.34;100044.56;3145607;28;20055;-59
2022/09/25 02:38:34;;;;;;;13.57;4.20;;;;;;;11.67;53.54;100050.44;3145421;28;20052;-59
2022/09/25 02:40:07;;;;;;;7.47;3.78;;;;;;;11.62;53.84;100049.78;3142291;28;20051;-60
2022/09/25 02:41:50;;;;;;;8.52;4.28;;;;;;;11.56;53.80;100042.25;3156155;28;20074;-60
2022/09/25 02:43:34;;;;;;;8.90;4.50;;;;;;;11.53;54.03;100040.63;3145225;28;20098;-60
2022/09/25 02:45:15;;;;;;;9.70;4.50;;;;;;;11.46;54.09;100041.81;3132967;28;20049;-60
2022/09/25 02:46:56;;;;;;;7.45;4.35;;;;;;;11.46;53.96;100048.81;3139517;28;20053;-60
2022/09/25 02:48:37;;;;;;;5.70;3.80;;;;;;;11.38;53.84;100036.94;3143166;28;20051;-60
2022/09/25 02:50:19;;;;;;;6.82;3.78;;;;;;;11.43;53.88;100044.56;3133701;28;20060;-60
2022/09/25 02:51:57;;;;;;;12.40;4.28;;;;;;;11.44;53.85;100041.03;3142805;28;20048;-60
2022/09/25 02:53:36;;;;;;;6.20;3.72;;;;;;;11.43;53.80;100044.56;3145353;28;20407;-60
2022/09/25 02:55:16;;;;;;;8.50;3.47;;;;;;;11.47;53.86;100045.25;3144363;28;20181;-61
2022/09/25 02:56:54;;;;;;;9.43;4.28;;;;;;;11.46;53.69;100043.59;3145503;28;20430;-60
2022/09/25 02:58:30;;;;;;;9.25;3.92;;;;;;;11.46;53.69;100041.81;3145660;28;20052;-61
2022/09/25 03:00:07;;;;;;;6.97;3.92;;;;;;;11.46;53.89;100052.25;3144964;28;20480;-60
2022/09/25 03:01:42;;;;;;;8.77;3.75;;;;;;;11.44;53.70;100046.25;3144839;28;20066;-60
2022/09/25 03:03:15;;;;;;;5.95;3.60;;;;;;;11.45;53.81;100053.19;3145220;28;20067;-61
2022/09/25 03:04:49;;;;;;;6.88;4.15;;;;;;;11.45;53.92;100054.94;3145856;28;20053;-60
2022/09/25 03:06:23;;;;;;;8.23;3.95;;;;;;;11.44;53.60;100059.28;3145180;28;20131;-60
2022/09/25 03:09:47;;;;;;;7.70;3.40;;;;;;;11.43;53.95;100054.16;3145347;28;20040;-61
2022/09/25 03:11:20;;;;;;;5.80;3.72;;;;;;;11.43;53.83;100055.00;3145667;28;20421;-60
2022/09/25 03:12:51;;;;;;;4.72;3.38;;;;;;;11.43;53.66;100056.75;3145695;28;20057;-60
2022/09/25 03:14:23;;;;;;;6.75;4.15;;;;;;;11.38;53.95;100054.34;3144779;28;20426;-61
2022/09/25 03:16:00;;;;;;;7.07;4.20;;;;;;;11.38;54.01;100062.16;3145447;28;20059;-60
2022/09/25 03:17:32;;;;;;;5.43;3.25;;;;;;;11.38;53.92;100056.94;3145169;28;20437;-59
2022/09/25 03:19:03;;;;;;;6.78;3.88;;;;;;;11.39;53.87;100063.88;3145219;28;20475;-60
2022/09/25 03:20:35;;;;;;;6.63;3.80;;;;;;;11.39;54.21;100056.91;3145271;28;20058;-59
2022/09/25 03:22:08;;;;;;;10.45;4.05;;;;;;;11.39;54.10;100058.66;3145100;28;20110;-59
2022/09/25 03:23:39;;;;;;;;;;;;;;;11.31;53.95;100045.13;3145771;28;20051;-59
2022/09/25 03:25:11;;;;;;;5.00;3.40;;;;;;;11.36;54.10;100053.59;3145521;28;20373;-61
2022/09/25 03:26:43;;;;;;;8.10;3.78;;;;;;;11.38;54.14;100057.78;3145112;28;20644;-60
2022/09/25 03:28:14;;;;;;;6.57;4.28;;;;;;;11.37;54.20;100060.47;3144893;28;20524;-60
2022/09/25 03:29:47;;;;;;;7.57;3.65;;;;;;;11.37;54.11;100058.72;3145489;28;20052;-60
2022/09/25 03:31:19;;;;;;;6.80;3.88;;;;;;;11.36;53.84;100058.81;3145120;28;20064;-60
2022/09/25 03:32:50;;;;;;;10.88;4.03;;;;;;;11.36;53.93;100050.97;3143340;28;20064;-60
2022/09/25 03:34:22;;;;;;;8.85;3.83;;;;;;;11.36;53.90;100056.19;3132653;28;20545;-60
2022/09/25 03:36:00;;;;;;;7.57;4.15;;;;;;;11.35;54.00;100057.94;3143784;28;20520;-60
2022/09/25 03:37:34;;;;;;;9.50;3.70;;;;;;;11.33;53.99;100045.91;3144923;28;20488;-60
2022/09/25 03:39:05;;;;;;;6.35;4.10;;;;;;;11.28;54.27;100040.03;3144491;28;20056;-62
2022/09/25 03:40:37;;;;;;;8.07;4.65;;;;;;;11.32;54.09;100041.59;3146684;28;20056;-60
2022/09/25 03:42:09;;;;;;;9.63;4.20;;;;;;;11.30;54.44;100038.22;3153909;28;20052;-60
2022/09/25 03:43:42;;;;;;;8.30;4.10;;;;;;;11.24;54.43;100028.91;3144721;28;20044;-60
2022/09/25 03:45:14;;;;;;;;;;;;;;;11.18;54.51;100042.22;3135317;28;20130;-60
2022/09/25 03:46:46;;;;;;;5.82;3.72;;;;;;;11.13;54.63;100031.97;3135118;28;19924;-61
2022/09/25 03:48:18;;;;;;;8.95;4.30;;;;;;;11.13;54.63;100036.34;3135719;28;20611;-60
2022/09/25 03:49:50;;;;;;;6.68;4.40;;;;;;;11.12;54.46;100032.91;3135260;28;20281;-61
2022/09/25 03:51:23;;;;;;;6.55;4.07;;;;;;;11.13;54.76;100037.19;3134808;28;20056;-60
2022/09/25 03:52:56;;;;;;;9.95;4.20;;;;;;;11.16;54.97;100038.81;3135000;28;20052;-60
2022/09/25 03:54:28;;;;;;;10.00;4.53;;;;;;;11.11;54.50;100033.78;3134755;28;20045;-61
2022/09/25 03:56:00;;;;;;;12.05;4.45;;;;;;;11.09;54.62;100030.44;3134396;28;20078;-61
2022/09/25 03:57:32;;;;;;;12.48;5.10;;;;;;;11.04;54.84;100031.53;3135570;28;20056;-60
2022/09/25 03:59:05;;;;;;;11.88;5.03;;;;;;;11.02;55.09;100030.75;3136431;28;20588;-60
2022/09/25 04:00:36;;;;;;;8.90;5.03;;;;;;;10.95;55.25;100045.81;3136214;28;20052;-60
2022/09/25 04:02:09;;;;;;;12.00;5.22;;;;;;;10.91;55.14;100046.81;3135578;28;20365;-59
2022/09/25 04:03:46;;;;;;;8.95;5.15;;;;;;;10.79;55.19;100031.72;3135629;28;20385;-60
2022/09/25 04:05:18;;;;;;;10.35;5.53;;;;;;;10.82;55.34;100047.22;3134663;28;20063;-60
2022/09/25 04:06:51;;;;;;;9.18;4.82;;;;;;;10.74;55.70;100046.69;3134906;28;20517;-60
2022/09/25 04:08:25;;;;;;;18.67;4.97;;;;;;;10.70;55.94;100048.56;3135492;28;20072;-61
2022/09/25 04:09:57;;;;;;;14.50;5.60;;;;;;;10.66;55.88;100047.88;3134560;28;20510;-61
2022/09/25 04:11:30;;;;;;;11.35;5.65;;;;;;;10.63;56.09;100042.78;3134883;28;20486;-61
2022/09/25 04:13:01;;;;;;;17.00;6.05;;;;;;;10.61;56.16;100044.59;3135318;28;20463;-61
2022/09/25 04:14:33;;;;;;;11.48;5.65;;;;;;;10.54;56.25;100043.16;3134663;28;20048;-60
2022/09/25 04:16:06;;;;;;;10.23;5.28;;;;;;;10.55;56.37;100044.00;3134559;28;20059;-61
2022/09/25 04:17:37;;;;;;;8.65;5.18;;;;;;;10.51;56.62;100043.28;3134933;28;20059;-60
2022/09/25 04:19:10;;;;;;;12.18;5.57;;;;;;;10.45;56.78;100044.38;3135838;28;20166;-61
2022/09/25 04:20:42;;;;;;;12.38;5.38;;;;;;;10.44;56.73;100045.31;3135275;28;20464;-61
2022/09/25 04:22:14;;;;;;;13.15;5.32;;;;;;;10.46;56.71;100046.06;3135817;28;20499;-61
2022/09/25 04:25:34;;;;;;;13.02;5.43;;;;;;;10.50;56.52;100036.41;3134386;28;20063;-60
2022/09/25 04:27:05;;;;;;;8.68;4.53;;;;;;;10.49;56.78;100032.09;3134614;28;20054;-60
2022/09/25 04:28:37;;;;;;;8.63;4.97;;;;;;;10.46;56.59;100033.06;3134479;28;20612;-61
2022/09/25 04:30:10;;;;;;;10.00;5.10;;;;;;;10.48;56.83;100040.81;3135572;28;20055;-63
2022/09/25 04:31:43;;;;;;;9.07;4.70;;;;;;;10.51;56.62;100047.66;3134780;28;20052;-61
2022/09/25 04:35:04;;;;;;;8.15;5.10;;;;;;;10.51;56.75;100051.09;3138004;28;20048;-61
2022/09/25 04:36:36;;;;;;;8.25;4.60;;;;;;;10.54;56.33;100050.97;3124501;28;20249;-60
2022/09/25 04:38:08;;;;;;;10.63;4.82;;;;;;;10.56;56.56;100041.34;3123365;28;20099;-60
2022/09/25 04:39:42;;;;;;;9.80;5.17;;;;;;;10.54;56.31;100040.56;3135686;28;20053;-60
2022/09/25 04:41:15;;;;;;;8.07;4.20;;;;;;;10.56;56.32;100030.06;3141501;28;20324;-60
2022/09/25 04:42:47;;;;;;;8.45;4.75;;;;;;;10.64;56.44;100041.03;3138371;28;20574;-60
2022/09/25 04:44:19;;;;;;;9.10;4.60;;;;;;;10.66;56.29;100050.47;3134738;28;20109;-63
2022/09/25 04:45:51;;;;;;;11.98;5.07;;;;;;;10.67;56.42;100056.53;3134567;28;20087;-61
2022/09/25 04:47:24;;;;;;;12.77;5.40;;;;;;;10.67;56.36;100054.75;3135175;28;20376;-61
2022/09/25 04:48:56;;;;;;;15.20;5.43;;;;;;;10.70;56.35;100059.84;3135429;28;20058;-61
2022/09/25 04:50:29;;;;;;;13.20;5.50;;;;;;;10.72;56.53;100058.94;3135605;28;20102;-61
2022/09/25 04:52:02;;;;;;;11.40;5.15;;;;;;;10.74;55.97;100055.38;3134601;28;20103;-61
2022/09/25 04:53:35;;;;;;;10.75;4.88;;;;;;;10.78;56.34;100056.09;3134413;28;20048;-62
2022/09/25 04:55:09;;;;;;;11.30;5.05;;;;;;;10.80;56.21;100067.31;3134534;28;20312;-60
2022/09/25 04:56:43;;;;;;;11.75;4.88;;;;;;;10.82;56.28;100068.06;3134354;28;20087;-60
2022/09/25 04:58:15;;;;;;;10.05;5.30;;;;;;;10.85;56.12;100075.75;3134294;28;20083;-60
2022/09/25 04:59:47;;;;;;;9.57;5.22;;;;;;;10.84;56.05;100071.47;3134290;28;20048;-61
2022/09/25 05:01:21;;;;;;;8.13;4.90;;;;;;;10.85;56.21;100065.31;3134837;28;20059;-61
2022/09/25 05:02:52;;;;;;;;;;;;;;;10.82;56.11;100075.88;3134748;28;20131;-60
2022/09/25 05:04:25;;;;;;;7.07;4.50;;;;;;;10.81;56.18;100080.25;3134572;28;19939;-60
2022/09/25 05:05:58;;;;;;;14.88;5.40;;;;;;;10.68;56.26;100069.50;3134332;28;20388;-60
2022/09/25 05:07:30;;;;;;;;;;;;;;;10.71;56.26;100073.75;3135886;28;20067;-60
2022/09/25 05:09:02;;;;;;;9.57;4.65;;;;;;;10.67;56.31;100079.97;3135205;28;19974;-60
2022/09/25 05:10:38;;;;;;;11.02;5.38;;;;;;;10.72;56.35;100082.38;3135732;28;20557;-60
2022/09/25 05:12:10;;;;;;;12.27;4.60;;;;;;;10.75;56.13;100077.91;3135540;28;20056;-60
2022/09/25 05:13:45;;;;;;;11.13;5.10;;;;;;;10.77;56.12;100083.06;3134642;28;20063;-60
2022/09/25 05:15:16;;;;;;;9.18;4.80;;;;;;;10.78;55.97;100080.38;3134206;28;20694;-60
2022/09/25 05:16:48;;;;;;;7.45;4.80;;;;;;;10.78;56.14;100087.34;3134217;28;20181;-60
2022/09/25 05:18:22;;;;;;;8.48;4.70;;;;;;;10.80;56.09;100083.78;3128808;28;20313;-60
2022/09/25 05:19:54;;;;;;;13.40;4.70;;;;;;;10.80;56.02;100082.94;3127850;28;20260;-60
2022/09/25 05:21:26;;;;;;;11.43;4.32;;;;;;;10.83;56.07;100090.63;3128912;28;20170;-61
2022/09/25 05:23:00;;;;;;;9.05;4.38;;;;;;;10.84;56.04;100087.09;3126058;28;20057;-61
2022/09/25 05:24:32;;;;;;;;;;;;;;;10.84;55.92;100092.31;3131769;28;20049;-60
2022/09/25 05:26:06;;;;;;;7.80;4.65;;;;;;;10.84;56.30;100097.50;3130351;28;20011;-59
2022/09/25 05:27:38;;;;;;;11.95;4.85;;;;;;;10.84;56.07;100098.34;3128343;28;20252;-58
2022/09/25 05:29:11;;;;;;;6.88;3.95;;;;;;;10.85;56.34;100105.25;3130483;28;20086;-59
2022/09/25 05:30:43;;;;;;;9.52;4.30;;;;;;;10.85;56.01;100102.66;3126795;28;20060;-59
2022/09/25 05:32:14;;;;;;;8.75;4.07;;;;;;;10.78;56.39;100093.41;3131188;28;20055;-58
2022/09/25 05:33:47;;;;;;;7.78;4.68;;;;;;;10.80;56.52;100102.00;3132174;28;20071;-59
2022/09/25 05:35:20;;;;;;;7.33;4.50;;;;;;;10.78;56.51;100097.78;3136360;28;20075;-59
2022/09/25 05:36:52;;;;;;;7.68;4.18;;;;;;;10.78;56.58;100097.78;3128326;28;20168;-60
2022/09/25 05:38:24;;;;;;;7.18;4.00;;;;;;;10.78;56.31;100097.78;3129707;28;20143;-59
2022/09/25 05:39:57;;;;;;;9.40;3.90;;;;;;;10.78;56.28;100097.78;3137491;28;20048;-58
2022/09/25 05:41:35;;;;;;;8.40;3.90;;;;;;;10.79;56.21;100104.66;3145964;28;20148;-59
2022/09/25 05:43:07;;;;;;;6.55;3.58;;;;;;;10.78;56.27;100098.59;3138405;28;20061;-61
2022/09/25 05:44:41;;;;;;;7.75;3.80;;;;;;;10.82;55.88;100097.56;3136799;28;20052;-59
2022/09/25 05:46:15;;;;;;;7.03;3.97;;;;;;;10.88;55.79;100104.28;3136781;28;20114;-59
2022/09/25 05:47:47;;;;;;;7.43;3.80;;;;;;;10.92;55.99;100100.66;3129955;28;20056;-59
2022/09/25 05:49:19;;;;;;;9.93;4.20;;;;;;;11.02;55.52;100114.13;3130615;28;20056;-60
2022/09/25 05:50:52;;;;;;;8.90;6.60;;;;;;;11.07;55.82;100106.97;3128256;28;20483;-63
2022/09/25 05:52:55;;;;;;;8.25;4.20;;;;;;;11.18;55.58;100109.09;3125989;28;20614;-60
2022/09/25 05:54:26;;;;;;;7.78;4.20;;;;;;;11.27;55.10;100113.94;3138844;28;20139;-60
2022/09/25 05:56:00;;;;;;;5.85;3.95;;;;;;;11.31;55.05;100118.13;3134196;28;20548;-64
2022/09/25 05:57:34;;;;;;;5.75;3.80;;;;;;;11.39;55.22;100116.88;3144946;28;20056;-60
2022/09/25 05:59:06;;;;;;;6.60;3.80;;;;;;;11.48;54.71;100112.19;3142948;28;20064;-60
2022/09/25 06:00:38;;;;;;;5.25;3.35;;;;;;;11.56;54.53;100097.84;3136969;28;20548;-60
2022/09/25 06:02:11;;;;;;;6.60;3.00;;;;;;;11.65;54.51;100095.75;3134907;28;20052;-59
2022/09/25 06:03:43;;;;;;;4.40;2.83;;;;;;;11.69;54.13;100098.19;3142479;28;20052;-59
2022/09/25 06:05:15;;;;;;;10.07;3.38;;;;;;;11.79;53.77;100096.81;3138584;28;20056;-60
2022/09/25 06:06:46;;;;;;;4.80;2.80;;;;;;;11.90;54.00;100095.53;3142342;28;20048;-60
2022/09/25 06:08:18;;;;;;;12.20;4.78;;;;;;;12.00;53.83;100087.19;3145905;28;20060;-60
2022/09/25 06:09:50;;;;;;;16.02;8.68;;;;;;;12.12;53.60;100096.22;3139620;28;20071;-59
2022/09/25 06:11:22;;;;;;;7.18;3.67;;;;;;;12.22;53.44;100091.44;3140721;28;20045;-59
2022/09/25 06:12:58;;;;;;;11.98;4.32;;;;;;;12.34;52.97;100096.06;3145818;28;20147;-60
2022/09/25 06:14:29;;;;;;;5.13;3.03;;;;;;;12.44;52.62;100089.47;3143356;28;20131;-58
2022/09/25 06:16:02;;;;;;;5.18;2.95;;;;;;;12.52;52.35;100096.94;3138381;28;20048;-58
2022/09/25 06:17:33;;;;;;;5.55;3.10;;;;;;;12.60;52.11;100097.44;3144147;28;20048;-59
2022/09/25 06:19:04;;;;;;;4.57;3.10;;;;;;;12.68;51.97;100094.44;3144737;28;20423;-60
2022/09/25 06:20:36;;;;;;;7.88;3.47;;;;;;;12.76;51.69;100092.28;3140095;28;20053;-60
2022/09/25 06:22:08;;;;;;;6.97;3.15;;;;;;;12.83;51.29;100088.44;3135992;28;20053;-60
2022/09/25 06:23:43;;;;;;;5.32;2.50;;;;;;;12.90;50.99;100092.44;3138797;28;20044;-60
2022/09/25 06:25:16;;;;;;;4.63;3.15;;;;;;;12.99;51.00;100088.53;3138280;28;20057;-59
2022/09/25 06:26:48;;;;;;;6.83;3.13;;;;;;;13.07;50.71;100091.59;3136316;28;20059;-60
2022/09/25 06:28:21;;;;;;;6.43;3.15;;;;;;;13.18;50.88;100089.28;3154603;28;20562;-60
2022/09/25 06:29:53;;;;;;;5.07;3.13;;;;;;;13.29;50.68;100086.16;3141963;28;20064;-58
2022/09/25 06:31:25;;;;;;;6.85;3.25;;;;;;;13.41;50.00;100088.13;3137342;28;20132;-59
2022/09/25 06:32:56;;;;;;;4.88;3.33;;;;;;;13.58;50.51;100082.00;3144744;28;20093;-57
2022/09/25 06:34:28;;;;;;;7.60;2.58;;;;;;;13.79;50.33;100080.00;3145539;28;20044;-59
2022/09/25 06:36:01;;;;;;;5.70;3.42;;;;;;;14.05;49.95;100078.59;3145278;28;20098;-59
2022/09/25 06:37:33;;;;;;;10.48;3.92;;;;;;;14.30;49.65;100078.06;3145820;28;20045;-61
2022/09/25 06:39:05;;;;;;;5.43;3.40;;;;;;;14.59;49.45;100080.84;3145786;28;20113;-59
2022/09/25 06:40:39;;;;;;;5.10;3.08;;;;;;;14.81;48.60;100074.34;3136411;28;20049;-59
2022/09/25 06:42:10;;;;;;;8.13;3.28;;;;;;;15.07;47.90;100078.91;3149265;28;20045;-60
2022/09/25 06:43:43;;;;;;;9.25;3.17;;;;;;;15.32;47.47;100066.94;3145659;28;20110;-60
2022/09/25 06:45:15;;;;;;;10.77;3.08;;;;;;;15.58;47.33;100075.84;3145949;28;20058;-58
2022/09/25 06:46:49;;;;;;;8.88;3.05;;;;;;;15.88;46.51;100070.50;3145510;28;20506;-61
2022/09/25 06:48:21;;;;;;;4.80;3.10;;;;;;;16.04;46.02;100057.28;3145687;28;20052;-60
2022/09/25 06:49:53;;;;;;;7.32;3.45;;;;;;;16.34;45.39;100073.69;3145678;28;20056;-59
2022/09/25 06:51:27;;;;;;;6.38;3.35;;;;;;;16.59;44.95;100072.06;3145408;28;20117;-59
2022/09/25 06:52:59;;;;;;;7.13;2.92;;;;;;;16.80;44.37;100064.56;3145767;28;20049;-59
2022/09/25 06:54:31;;;;;;;6.18;2.95;;;;;;;16.98;43.88;100065.16;3145281;28;20045;-59
2022/09/25 06:56:04;;;;;;;5.93;2.95;;;;;;;17.25;43.38;100078.22;3145643;28;20048;-60
2022/09/25 06:57:36;;;;;;;4.53;3.10;;;;;;;17.42;42.74;100080.53;3145656;28;20052;-60
2022/09/25 06:59:10;;;;;;;10.07;3.58;;;;;;;17.65;42.14;100076.28;3145455;28;20053;-57
2022/09/25 07:00:45;;;;;;;5.35;3.10;;;;;;;17.82;41.69;100067.22;3145469;28;20060;-58
2022/09/25 07:04:06;;;;;;;4.25;3.00;;;;;;;18.11;40.78;100072.22;3133065;28;20053;-59
2022/09/25 07:05:37;;;;;;;6.22;2.80;;;;;;;18.30;40.58;100066.44;3133955;28;20103;-60
2022/09/25 07:07:09;;;;;;;5.95;2.97;;;;;;;18.53;40.43;100057.69;3132777;28;20045;-58
2022/09/25 07:08:42;;;;;;;5.15;3.63;;;;;;;18.67;39.61;100045.28;3141350;28;20388;-59
2022/09/25 07:10:14;;;;;;;4.18;3.33;;;;;;;18.85;39.22;100062.38;3145456;28;20049;-62
2022/09/25 07:11:47;;;;;;;4.28;3.13;;;;;;;18.98;38.83;100068.41;3144677;28;20154;-61
2022/09/25 07:13:23;;;;;;;7.80;3.63;;;;;;;19.05;38.53;100074.91;3145525;28;20045;-61
2022/09/25 07:14:56;;;;;;;5.25;3.20;;;;;;;19.17;38.43;100073.13;3145263;28;20041;-60
2022/09/25 07:16:34;;;;;;;12.45;3.30;;;;;;;19.31;37.74;100074.69;3144615;28;20053;-60
2022/09/25 07:18:08;;;;;;;5.63;2.80;;;;;;;19.52;37.88;100066.91;3145520;28;20065;-61
2022/09/25 07:19:40;;;;;;;6.25;3.50;;;;;;;19.78;37.53;100068.34;3145128;28;20052;-60
2022/09/25 07:21:14;;;;;;;7.68;3.47;;;;;;;20.04;37.16;100064.63;3145438;28;20585;-60
2022/09/25 07:22:46;;;;;;;6.03;3.15;;;;;;;20.30;36.95;100076.56;3154834;28;20800;-60
2022/09/25 07:24:17;;;;;;;6.15;3.50;;;;;;;20.61;36.60;100066.97;3146725;28;20051;-60
2022/09/25 07:25:49;;;;;;;6.88;3.30;;;;;;;20.89;35.92;100072.63;3145158;28;20062;-60
2022/09/25 07:27:21;;;;;;;7.53;3.40;;;;;;;21.20;35.72;100067.38;3145274;28;20151;-61
2022/09/25 07:28:55;;;;;;;6.25;3.75;;;;;;;21.48;34.69;100066.72;3145216;28;20110;-60